Time;durP1;ratioP1;P1;durP2;ratioP2;P2;SDS_P1;SDS_P2;PMS_P1;PMS_P2;Temp;Humidity;BMP_temperature;BMP_pressure;BME280_temperature;BME280_humidity;BME280_pressure;Samples;Min_cycle;Max_cycle;Signal;HPM_P1;HPM_P2
2021/10/22 00:01:12;;;;;;;4.57;1.17;;;8.90;70.00;;;;;;5026770;28;20051;-66
2021/10/22 00:03:38;;;;;;;6.60;1.58;;;8.90;70.00;;;;;;5026076;28;20037;-66
2021/10/22 00:06:04;;;;;;;5.68;1.38;;;8.90;70.20;;;;;;5025929;28;20029;-66
2021/10/22 00:08:30;;;;;;;8.82;1.60;;;8.80;70.20;;;;;;5030592;28;20394;-66
2021/10/22 00:10:56;;;;;;;4.47;1.38;;;8.80;70.50;;;;;;5026869;28;20021;-66
2021/10/22 00:13:22;;;;;;;4.72;1.48;;;8.80;70.60;;;;;;5027833;28;20040;-66
2021/10/22 00:15:48;;;;;;;4.53;1.35;;;8.80;70.70;;;;;;5029317;28;20050;-66
2021/10/22 00:18:13;;;;;;;6.43;1.48;;;8.70;71.70;;;;;;5027691;28;20029;-66
2021/10/22 00:20:39;;;;;;;6.70;1.98;;;8.70;70.40;;;;;;5026776;28;20052;-66
2021/10/22 00:23:06;;;;;;;3.80;1.08;;;8.60;70.30;;;;;;5027615;28;20076;-66
2021/10/22 00:25:32;;;;;;;4.40;1.40;;;8.60;70.10;;;;;;5025296;28;20021;-66
2021/10/22 00:27:58;;;;;;;5.72;1.35;;;8.50;70.00;;;;;;5027845;28;20036;-66
2021/10/22 00:30:23;;;;;;;5.90;1.25;;;8.40;70.00;;;;;;5026900;28;20026;-66
2021/10/22 00:32:49;;;;;;;4.57;1.20;;;8.40;70.30;;;;;;5028173;28;20033;-66
2021/10/22 00:35:15;;;;;;;4.68;1.30;;;8.40;70.50;;;;;;5027954;28;20116;-66
2021/10/22 00:37:41;;;;;;;3.92;1.20;;;8.40;70.40;;;;;;5026443;28;20060;-66
2021/10/22 00:40:07;;;;;;;3.67;1.25;;;8.30;70.50;;;;;;5022723;28;20033;-66
2021/10/22 00:42:33;;;;;;;7.57;1.20;;;8.30;70.80;;;;;;5028346;28;20029;-66
2021/10/22 00:45:00;;;;;;;4.93;1.52;;;8.20;70.80;;;;;;5028681;28;20029;-66
2021/10/22 00:47:26;;;;;;;5.38;1.40;;;8.20;71.00;;;;;;5026352;28;20033;-66
2021/10/22 00:49:52;;;;;;;4.20;1.45;;;8.20;70.80;;;;;;5025812;28;20030;-66
2021/10/22 00:52:22;;;;;;;6.20;1.30;;;8.10;70.70;;;;;;5023887;28;20045;-66
2021/10/22 00:54:49;;;;;;;7.75;1.30;;;8.10;70.80;;;;;;5024266;28;20029;-66
2021/10/22 00:57:15;;;;;;;4.53;1.40;;;8.10;70.80;;;;;;5023128;28;20112;-66
2021/10/22 00:59:41;;;;;;;4.45;1.23;;;8.00;70.60;;;;;;5017033;28;20049;-66
2021/10/22 01:02:09;;;;;;;9.40;1.40;;;8.00;70.70;;;;;;5020027;28;20076;-65
2021/10/22 01:04:35;;;;;;;6.90;1.42;;;8.00;70.80;;;;;;5018252;28;20105;-66
2021/10/22 01:07:01;;;;;;;6.13;1.30;;;7.90;71.20;;;;;;5018467;28;20485;-66
2021/10/22 01:09:28;;;;;;;5.53;1.30;;;7.90;71.20;;;;;;5015495;28;20036;-66
2021/10/22 01:11:53;;;;;;;6.15;1.40;;;7.90;71.00;;;;;;5023255;28;20026;-66
2021/10/22 01:14:20;;;;;;;6.10;1.20;;;7.90;71.00;;;;;;5026384;28;20038;-66
2021/10/22 01:16:46;;;;;;;4.75;1.30;;;7.90;71.00;;;;;;5026217;28;20385;-65
2021/10/22 01:19:17;;;;;;;5.13;1.50;;;7.80;71.00;;;;;;5025667;28;20018;-65
2021/10/22 01:21:46;;;;;;;6.90;1.40;;;7.80;71.20;;;;;;5025888;28;20046;-66
2021/10/22 01:24:13;;;;;;;5.15;1.27;;;7.80;71.30;;;;;;5026764;28;20026;-65
2021/10/22 01:26:39;;;;;;;7.18;1.08;;;7.70;71.30;;;;;;5029043;28;20473;-66
2021/10/22 01:29:05;;;;;;;5.20;1.30;;;7.70;71.30;;;;;;5024262;28;20128;-66
2021/10/22 01:31:31;;;;;;;4.45;1.27;;;7.70;72.10;;;;;;5026676;28;20484;-66
2021/10/22 01:33:57;;;;;;;4.20;1.25;;;7.70;71.00;;;;;;5029543;28;20532;-66
2021/10/22 01:36:24;;;;;;;4.07;1.42;;;7.70;71.00;;;;;;5031311;28;20026;-66
2021/10/22 01:38:51;;;;;;;4.38;1.40;;;7.60;70.80;;;;;;5031776;28;20030;-66
2021/10/22 01:41:17;;;;;;;4.28;1.30;;;7.60;70.80;;;;;;5022678;28;20025;-66
2021/10/22 01:43:44;;;;;;;5.80;1.45;;;7.50;70.80;;;;;;5027625;28;20407;-66
2021/10/22 01:46:11;;;;;;;4.50;1.33;;;7.50;70.90;;;;;;5028797;28;20509;-65
2021/10/22 01:48:37;;;;;;;4.95;1.40;;;7.50;71.00;;;;;;5031336;28;20052;-66
2021/10/22 01:51:04;;;;;;;5.13;1.85;;;7.50;71.20;;;;;;5016447;28;20153;-65
2021/10/22 01:53:30;;;;;;;5.95;1.55;;;7.40;71.40;;;;;;5030085;28;20041;-65
2021/10/22 01:55:56;;;;;;;5.72;1.70;;;7.40;71.60;;;;;;5026967;28;20044;-66
2021/10/22 01:58:22;;;;;;;4.38;1.40;;;7.40;71.80;;;;;;5028726;28;20499;-66
2021/10/22 02:00:49;;;;;;;6.30;1.55;;;7.40;71.80;;;;;;5029125;28;20030;-66
2021/10/22 02:03:15;;;;;;;8.18;1.80;;;7.40;71.70;;;;;;5029193;28;20030;-66
2021/10/22 02:05:41;;;;;;;7.22;1.70;;;7.30;71.60;;;;;;5030712;28;20079;-66
2021/10/22 02:08:08;;;;;;;5.38;1.80;;;7.30;71.50;;;;;;5029696;28;20044;-65
2021/10/22 02:10:34;;;;;;;4.78;1.90;;;7.30;71.70;;;;;;5021554;28;20057;-66
2021/10/22 02:13:00;;;;;;;5.45;1.70;;;7.30;71.90;;;;;;5030649;28;20049;-66
2021/10/22 02:15:26;;;;;;;5.50;1.60;;;7.30;72.10;;;;;;5029087;28;20060;-66
2021/10/22 02:17:52;;;;;;;5.07;1.63;;;7.30;72.20;;;;;;5029357;28;20073;-65
2021/10/22 02:20:19;;;;;;;6.72;1.70;;;7.20;72.10;;;;;;5031332;28;20780;-66
2021/10/22 02:22:45;;;;;;;3.40;1.40;;;7.30;72.20;;;;;;5026055;28;20060;-65
2021/10/22 02:25:11;;;;;;;8.15;1.50;;;7.20;72.30;;;;;;5024139;28;20493;-65
2021/10/22 02:27:36;;;;;;;4.68;1.52;;;7.20;72.50;;;;;;5026551;28;20030;-66
2021/10/22 02:30:04;;;;;;;5.38;1.40;;;7.20;72.40;;;;;;5013563;28;20487;-66
2021/10/22 02:32:30;;;;;;;7.78;1.70;;;7.20;72.40;;;;;;5032769;28;20041;-66
2021/10/22 02:34:56;;;;;;;3.72;1.50;;;7.20;72.50;;;;;;5028479;28;20120;-66
2021/10/22 02:37:22;;;;;;;6.97;1.80;;;7.20;72.60;;;;;;5029396;28;20475;-66
2021/10/22 02:39:48;;;;;;;6.88;1.80;;;7.20;72.70;;;;;;5028934;28;20029;-66
2021/10/22 02:42:14;;;;;;;5.20;1.85;;;7.10;72.70;;;;;;5030707;28;20598;-65
2021/10/22 02:44:39;;;;;;;6.90;1.70;;;7.10;72.90;;;;;;5015281;28;20097;-65
2021/10/22 02:47:05;;;;;;;4.32;1.60;;;7.10;73.00;;;;;;5029667;28;20026;-66
2021/10/22 02:49:32;;;;;;;6.80;1.70;;;7.10;73.20;;;;;;5028736;28;20021;-66
2021/10/22 02:51:57;;;;;;;6.68;1.40;;;7.10;73.20;;;;;;5026485;28;20033;-65
2021/10/22 02:54:23;;;;;;;6.32;1.52;;;7.00;73.30;;;;;;5029796;28;20393;-66
2021/10/22 02:56:49;;;;;;;5.53;1.80;;;7.00;73.40;;;;;;5030180;28;20021;-65
2021/10/22 02:59:15;;;;;;;4.68;1.70;;;7.00;73.50;;;;;;5031143;28;20073;-65
2021/10/22 03:01:42;;;;;;;6.53;1.48;;;7.00;73.50;;;;;;5028685;28;20064;-66
2021/10/22 03:04:08;;;;;;;4.72;1.30;;;7.00;73.30;;;;;;5027369;28;20083;-66
2021/10/22 03:06:33;;;;;;;4.85;1.40;;;6.90;72.80;;;;;;5025692;28;20026;-65
2021/10/22 03:08:59;;;;;;;4.43;1.60;;;6.90;72.80;;;;;;5029688;28;20033;-66
2021/10/22 03:11:26;;;;;;;5.65;1.67;;;6.90;73.00;;;;;;5027735;28;20029;-66
2021/10/22 03:13:52;;;;;;;4.38;1.55;;;6.80;73.20;;;;;;5029363;28;20037;-66
2021/10/22 03:16:18;;;;;;;4.22;1.63;;;6.80;73.40;;;;;;5029208;28;20030;-65
2021/10/22 03:18:44;;;;;;;6.65;1.60;;;6.80;73.50;;;;;;5024910;28;20129;-65
2021/10/22 03:21:10;;;;;;;4.78;1.38;;;6.80;73.70;;;;;;5026846;28;20064;-66
2021/10/22 03:23:36;;;;;;;9.60;1.75;;;6.80;73.70;;;;;;5030955;28;20392;-66
2021/10/22 03:26:01;;;;;;;4.75;1.38;;;6.80;73.70;;;;;;5027852;28;20033;-66
2021/10/22 03:28:27;;;;;;;4.38;1.52;;;6.80;73.60;;;;;;5027212;28;20017;-66
2021/10/22 03:30:53;;;;;;;5.53;1.50;;;6.70;73.10;;;;;;5027541;28;20057;-66
2021/10/22 03:33:19;;;;;;;5.88;1.40;;;6.70;73.00;;;;;;5026824;28;20053;-66
2021/10/22 03:35:44;;;;;;;3.72;1.10;;;6.60;73.00;;;;;;5029443;28;20405;-65
2021/10/22 03:38:11;;;;;;;3.63;1.30;;;6.60;73.10;;;;;;5029277;28;20030;-65
2021/10/22 03:40:37;;;;;;;4.40;1.50;;;6.60;73.10;;;;;;5021489;28;20485;-65
2021/10/22 03:43:02;;;;;;;6.05;1.80;;;6.60;72.90;;;;;;5026483;28;20050;-65
2021/10/22 03:45:28;;;;;;;4.93;1.52;;;6.50;72.90;;;;;;5027906;28;20026;-65
2021/10/22 03:47:55;;;;;;;5.13;1.60;;;6.50;73.70;;;;;;5028465;28;20040;-65
2021/10/22 03:50:22;;;;;;;4.72;1.50;;;6.40;72.60;;;;;;5029717;28;20485;-65
2021/10/22 03:52:48;;;;;;;3.67;1.40;;;6.40;72.80;;;;;;5024792;28;20037;-65
2021/10/22 03:55:15;;;;;;;5.10;1.50;;;6.40;73.00;;;;;;5026670;28;20104;-65
2021/10/22 03:57:41;;;;;;;4.03;1.40;;;6.40;73.10;;;;;;5026941;28;20033;-65
2021/10/22 04:00:08;;;;;;;5.68;1.70;;;6.30;73.10;;;;;;5013833;28;20028;-65
2021/10/22 04:02:34;;;;;;;5.03;1.50;;;6.30;73.20;;;;;;5031581;28;20221;-65
2021/10/22 04:05:03;;;;;;;7.90;1.80;;;6.30;73.20;;;;;;5026435;28;20064;-66
2021/10/22 04:07:29;;;;;;;5.78;1.80;;;6.30;73.20;;;;;;5024255;28;20108;-65
2021/10/22 04:09:55;;;;;;;8.50;3.85;;;6.30;73.20;;;;;;5025656;28;20116;-65
2021/10/22 04:12:20;;;;;;;7.93;2.20;;;6.30;73.30;;;;;;5026144;28;20026;-65
2021/10/22 04:14:46;;;;;;;6.10;2.10;;;6.20;73.60;;;;;;5027311;28;20037;-65
2021/10/22 04:17:12;;;;;;;8.75;3.47;;;6.20;73.60;;;;;;5025158;28;20034;-65
2021/10/22 04:19:40;;;;;;;7.35;3.08;;;6.20;73.60;;;;;;5018521;28;20092;-66
2021/10/22 04:22:06;;;;;;;4.57;2.00;;;6.20;73.50;;;;;;5024185;28;20052;-65
2021/10/22 04:24:31;;;;;;;6.53;1.40;;;6.20;73.70;;;;;;5026775;28;20397;-65
2021/10/22 04:26:58;;;;;;;6.07;1.40;;;6.20;73.90;;;;;;5019520;28;20046;-65
2021/10/22 04:29:24;;;;;;;8.98;1.60;;;6.20;74.00;;;;;;5028300;28;20032;-66
2021/10/22 04:31:50;;;;;;;4.32;1.70;;;6.20;74.10;;;;;;5027919;28;20030;-66
2021/10/22 04:34:15;;;;;;;4.28;1.55;;;6.20;74.20;;;;;;5028171;28;20511;-65
2021/10/22 04:36:42;;;;;;;4.63;1.50;;;6.20;74.40;;;;;;5059039;28;20021;-64
2021/10/22 04:41:52;;;;;;;5.85;1.45;;;6.10;73.90;;;;;;5028222;28;20064;-65
2021/10/22 04:44:18;;;;;;;5.55;1.45;;;6.10;73.80;;;;;;5029960;28;20053;-66
2021/10/22 04:46:44;;;;;;;7.55;1.70;;;6.10;73.70;;;;;;5029380;28;20026;-65
2021/10/22 04:49:10;;;;;;;4.57;1.50;;;6.10;73.80;;;;;;5023382;28;20030;-66
2021/10/22 04:51:36;;;;;;;6.70;1.70;;;6.00;73.60;;;;;;5023255;28;20104;-65
2021/10/22 04:54:02;;;;;;;5.20;1.80;;;6.00;73.50;;;;;;5029898;28;20041;-67
2021/10/22 04:56:27;;;;;;;4.97;1.55;;;6.00;73.70;;;;;;5029823;28;20057;-65
2021/10/22 04:58:53;;;;;;;4.88;1.30;;;6.00;73.80;;;;;;5027608;28;20038;-66
2021/10/22 05:01:19;;;;;;;5.40;1.63;;;6.00;73.90;;;;;;5027424;28;20513;-66
2021/10/22 05:03:45;;;;;;;4.03;1.40;;;6.00;74.00;;;;;;5029487;28;20049;-65
2021/10/22 05:06:11;;;;;;;4.15;1.70;;;5.90;74.00;;;;;;5032560;28;20470;-66
2021/10/22 05:08:38;;;;;;;4.63;1.60;;;5.90;74.10;;;;;;5033493;28;20023;-66
2021/10/22 05:11:04;;;;;;;6.03;1.58;;;5.90;74.10;;;;;;5019451;28;20026;-66
2021/10/22 05:13:30;;;;;;;6.63;1.90;;;5.90;74.20;;;;;;5023855;28;20033;-65
2021/10/22 05:15:56;;;;;;;7.13;1.83;;;5.90;73.90;;;;;;5027630;28;20030;-66
2021/10/22 05:18:22;;;;;;;6.05;1.58;;;5.90;73.80;;;;;;5022858;28;20036;-65
2021/10/22 05:20:49;;;;;;;5.47;1.70;;;5.80;73.70;;;;;;5032080;28;20459;-66
2021/10/22 05:23:16;;;;;;;4.80;1.80;;;5.80;73.70;;;;;;5027533;28;20036;-66
2021/10/22 05:25:42;;;;;;;4.55;1.65;;;5.80;73.90;;;;;;5031649;28;20052;-66
2021/10/22 05:28:07;;;;;;;8.75;2.00;;;5.80;73.90;;;;;;5030339;28;20053;-66
2021/10/22 05:30:34;;;;;;;6.22;2.08;;;5.80;74.10;;;;;;5028676;28;20022;-66
2021/10/22 05:33:00;;;;;;;6.10;1.92;;;5.70;74.10;;;;;;5029505;28;20037;-66
2021/10/22 05:35:26;;;;;;;4.32;1.83;;;5.70;74.20;;;;;;5032685;28;20068;-66
2021/10/22 05:37:52;;;;;;;8.73;1.77;;;5.70;74.20;;;;;;5019208;28;20038;-66
2021/10/22 05:40:18;;;;;;;6.32;1.90;;;5.70;74.20;;;;;;5019369;28;20366;-66
2021/10/22 05:42:43;;;;;;;5.38;1.65;;;5.70;74.30;;;;;;5024573;28;20447;-66
2021/10/22 05:45:10;;;;;;;4.88;2.13;;;5.70;74.30;;;;;;5028849;28;20535;-66
2021/10/22 05:47:36;;;;;;;7.50;1.80;;;5.80;74.40;;;;;;5029831;28;20388;-66
2021/10/22 05:50:04;;;;;;;4.28;1.80;;;5.70;74.30;;;;;;5032131;28;20051;-66
2021/10/22 05:52:30;;;;;;;5.93;1.70;;;5.70;74.30;;;;;;5028759;28;20032;-65
2021/10/22 05:54:56;;;;;;;12.00;7.00;;;5.70;74.40;;;;;;5026238;28;20037;-65
2021/10/22 05:57:22;;;;;;;8.15;3.35;;;5.70;74.40;;;;;;5016246;28;20076;-65
2021/10/22 05:59:48;;;;;;;6.35;2.70;;;5.70;74.50;;;;;;5015770;28;20079;-65
2021/10/22 06:02:14;;;;;;;5.55;2.15;;;5.70;74.70;;;;;;5018962;28;20021;-65
2021/10/22 06:04:39;;;;;;;6.55;2.33;;;5.70;74.80;;;;;;5029281;28;20040;-65
2021/10/22 06:07:05;;;;;;;4.90;2.30;;;5.70;74.90;;;;;;5033458;28;20025;-66
2021/10/22 06:09:31;;;;;;;5.60;2.40;;;5.70;75.00;;;;;;5031461;28;20524;-65
2021/10/22 06:11:57;;;;;;;5.05;2.10;;;5.70;75.00;;;;;;5030263;28;20037;-66
2021/10/22 06:14:23;;;;;;;4.68;2.05;;;5.70;75.00;;;;;;5024989;28;20069;-66
2021/10/22 06:16:49;;;;;;;6.38;2.05;;;5.70;74.90;;;;;;5019643;28;20053;-65
2021/10/22 06:19:17;;;;;;;8.02;2.83;;;5.70;74.70;;;;;;5016610;28;20061;-65
2021/10/22 06:24:09;;;;;;;6.95;2.35;;;5.60;74.90;;;;;;5028807;28;20041;-66
2021/10/22 06:26:42;;;;;;;7.57;2.90;;;5.60;74.70;;;;;;5033876;28;20056;-65
2021/10/22 06:29:13;;;;;;;7.35;2.50;;;5.60;74.60;;;;;;5043494;28;20037;-65
2021/10/22 06:31:41;;;;;;;9.68;2.45;;;5.60;74.60;;;;;;5025182;28;20036;-66
2021/10/22 06:34:08;;;;;;;5.00;2.55;;;5.60;74.80;;;;;;5026127;28;20034;-65
2021/10/22 06:36:34;;;;;;;7.20;2.72;;;5.60;74.70;;;;;;5027404;28;20453;-66
2021/10/22 06:39:02;;;;;;;9.77;2.70;;;5.50;74.60;;;;;;5023644;28;20025;-66
2021/10/22 06:41:27;;;;;;;5.18;2.05;;;5.60;74.60;;;;;;5017139;28;20026;-66
2021/10/22 06:43:53;;;;;;;5.55;1.95;;;5.60;74.40;;;;;;5028155;28;20041;-66
2021/10/22 06:46:20;;;;;;;6.10;2.08;;;5.60;74.30;;;;;;5024965;28;20442;-65
2021/10/22 06:48:47;;;;;;;4.88;2.20;;;5.60;74.30;;;;;;5027067;28;20077;-65
2021/10/22 06:51:16;;;;;;;6.53;2.13;;;5.60;74.20;;;;;;5025511;28;20022;-65
2021/10/22 06:53:43;;;;;;;7.95;2.35;;;5.60;74.30;;;;;;5016958;28;20037;-65
2021/10/22 06:56:09;;;;;;;8.70;2.45;;;5.70;74.30;;;;;;5026922;28;20029;-66
2021/10/22 06:58:35;;;;;;;6.22;2.00;;;5.70;74.20;;;;;;5024926;28;20055;-66
2021/10/22 07:01:01;;;;;;;5.13;2.25;;;6.00;74.00;;;;;;5029528;28;20026;-66
2021/10/22 07:03:28;;;;;;;5.75;2.20;;;6.40;73.70;;;;;;5029420;28;20037;-65
2021/10/22 07:08:25;;;;;;;7.32;3.10;;;7.20;72.10;;;;;;5028003;28;20022;-66
2021/10/22 07:10:51;;;;;;;7.90;3.35;;;7.70;71.00;;;;;;5022027;28;20484;-66
2021/10/22 07:13:17;;;;;;;9.32;4.35;;;8.10;69.90;;;;;;5023264;28;20030;-66
2021/10/22 07:15:43;;;;;;;9.55;3.15;;;8.60;68.80;;;;;;5026812;28;20030;-66
2021/10/22 07:18:09;;;;;;;8.07;3.65;;;9.00;67.60;;;;;;5027765;28;20041;-67
2021/10/22 07:20:36;;;;;;;11.48;3.83;;;9.50;66.40;;;;;;5027162;28;20034;-66
2021/10/22 07:23:09;;;;;;;10.32;3.45;;;10.00;65.20;;;;;;5025079;28;20389;-66
2021/10/22 07:25:38;;;;;;;14.88;3.58;;;10.60;64.00;;;;;;5021027;28;20508;-67
2021/10/22 07:28:10;;;;;;;9.57;4.00;;;11.20;62.90;;;;;;5026095;28;20072;-67
2021/10/22 07:30:37;;;;;;;16.23;4.20;;;11.70;61.60;;;;;;5026249;28;20028;-67
2021/10/22 07:33:04;;;;;;;8.15;3.95;;;12.20;60.40;;;;;;5011638;28;20026;-67
2021/10/22 07:35:29;;;;;;;9.15;4.38;;;12.60;59.30;;;;;;5030682;28;20055;-67
2021/10/22 07:37:55;;;;;;;12.10;5.82;;;13.20;58.10;;;;;;5015540;28;20471;-67
2021/10/22 07:40:21;;;;;;;13.57;4.10;;;13.70;56.80;;;;;;5021403;28;20030;-67
2021/10/22 07:42:47;;;;;;;10.43;3.63;;;14.20;55.60;;;;;;5024268;28;20092;-67
2021/10/22 07:45:13;;;;;;;9.15;3.83;;;14.70;53.70;;;;;;5026467;28;20100;-67
2021/10/22 07:47:39;;;;;;;8.45;4.10;;;15.20;52.50;;;;;;5014221;28;20029;-67
2021/10/22 07:50:07;;;;;;;12.25;5.28;;;15.70;51.40;;;;;;5026872;28;20036;-67
2021/10/22 07:52:33;;;;;;;15.18;6.53;;;16.30;50.60;;;;;;5019848;28;20506;-68
2021/10/22 07:54:59;;;;;;;11.30;4.93;;;16.80;49.80;;;;;;5019345;28;20030;-67
2021/10/22 07:57:27;;;;;;;10.07;5.30;;;17.30;48.70;;;;;;5013815;28;20666;-67
2021/10/22 07:59:53;;;;;;;10.05;4.88;;;17.80;47.80;;;;;;5024185;28;20523;-67
2021/10/22 08:02:21;;;;;;;11.20;5.95;;;18.40;46.80;;;;;;5021830;28;20021;-68
2021/10/22 08:04:49;;;;;;;9.32;5.22;;;19.00;45.70;;;;;;5017075;28;20038;-67
2021/10/22 08:07:23;;;;;;;14.45;6.38;;;19.50;44.70;;;;;;5018247;28;20021;-68
2021/10/22 08:09:49;;;;;;;12.00;5.70;;;20.10;43.70;;;;;;5024886;28;20045;-68
2021/10/22 08:12:17;;;;;;;13.50;5.50;;;20.60;42.60;;;;;;5017032;28;20682;-68
2021/10/22 08:14:46;;;;;;;11.05;5.13;;;21.20;41.70;;;;;;5022294;28;20048;-68
2021/10/22 08:17:12;;;;;;;16.05;5.50;;;21.70;40.70;;;;;;5057240;28;20025;-68
2021/10/22 08:19:39;;;;;;;10.52;5.20;;;22.30;39.70;;;;;;5025318;28;20247;-68
2021/10/22 08:24:31;;;;;;;11.02;4.70;;;23.30;37.70;;;;;;5028025;28;20120;-68
2021/10/22 08:26:58;;;;;;;12.48;4.70;;;23.80;36.90;;;;;;5027757;28;20025;-68
2021/10/22 08:29:23;;;;;;;19.23;4.80;;;24.30;36.20;;;;;;5029314;28;20399;-68
2021/10/22 08:31:51;;;;;;;11.55;4.80;;;24.80;35.40;;;;;;5023675;28;20082;-68
2021/10/22 08:34:16;;;;;;;10.88;4.55;;;25.30;34.40;;;;;;5020302;28;20473;-68
2021/10/22 08:36:43;;;;;;;12.77;4.60;;;25.80;33.70;;;;;;5016566;28;20048;-68
2021/10/22 08:39:10;;;;;;;12.00;4.68;;;26.20;32.60;;;;;;5011993;28;20021;-68
2021/10/22 08:41:37;;;;;;;12.43;4.60;;;26.60;32.20;;;;;;5029564;28;20037;-68
2021/10/22 08:44:04;;;;;;;14.40;4.85;;;26.90;31.60;;;;;;5026422;28;20064;-68
2021/10/22 08:46:31;;;;;;;10.65;4.72;;;27.00;31.50;;;;;;5018803;28;20028;-68
2021/10/22 08:49:00;;;;;;;12.70;5.32;;;27.10;31.30;;;;;;5020036;28;20345;-68
2021/10/22 08:51:26;;;;;;;11.05;4.50;;;27.60;30.50;;;;;;5025771;28;20021;-68
2021/10/22 08:53:53;;;;;;;14.55;4.88;;;26.90;30.00;;;;;;5025421;28;20041;-68
2021/10/22 08:56:22;;;;;;;11.80;5.30;;;25.70;31.70;;;;;;5016814;28;20084;-68
2021/10/22 08:58:47;;;;;;;13.65;5.32;;;26.60;32.00;;;;;;5016766;28;20053;-68
2021/10/22 09:01:14;;;;;;;10.27;4.20;;;27.80;30.10;;;;;;5021485;28;20499;-67
2021/10/22 09:03:40;;;;;;;11.35;4.65;;;26.90;29.60;;;;;;5025372;28;20064;-66
2021/10/22 09:06:15;;;;;;;9.45;4.25;;;26.80;31.10;;;;;;5028078;28;20037;-67
2021/10/22 09:08:43;;;;;;;11.07;4.60;;;28.10;30.00;;;;;;5026527;28;20504;-68
2021/10/22 09:11:33;;;;;;;7.03;4.10;;;29.20;29.00;;;;;;5024676;28;20025;-68
2021/10/22 09:14:09;;;;;;;10.73;4.20;;;30.10;28.10;;;;;;5022575;28;20336;-68
2021/10/22 09:16:43;;;;;;;8.60;4.50;;;30.90;27.60;;;;;;5023649;28;20385;-67
2021/10/22 09:19:09;;;;;;;10.05;5.63;;;31.80;26.70;;;;;;5025584;28;20025;-69
2021/10/22 09:21:35;;;;;;;14.55;7.22;;;32.40;26.20;;;;;;5026259;28;20045;-69
2021/10/22 09:24:21;;;;;;;13.50;7.85;;;32.90;25.50;;;;;;5026105;28;20034;-68
2021/10/22 09:26:57;;;;;;;12.98;6.63;;;33.50;25.10;;;;;;5025333;28;20516;-67
2021/10/22 09:29:27;;;;;;;9.93;6.25;;;34.00;24.50;;;;;;5014539;28;20053;-68
2021/10/22 09:31:55;;;;;;;;;;;34.40;24.20;;;;;;5025895;28;20140;-68
2021/10/22 09:34:37;;;;;;;9.38;5.90;;;34.80;23.90;;;;;;5026531;28;19909;-67
2021/10/22 09:37:12;;;;;;;9.20;5.97;;;35.20;23.50;;;;;;5021979;28;20049;-67
2021/10/22 09:39:39;;;;;;;9.55;5.25;;;35.40;23.20;;;;;;5016753;28;20419;-68
2021/10/22 09:42:16;;;;;;;8.93;4.53;;;35.50;23.30;;;;;;5017704;28;20082;-68
2021/10/22 09:44:44;;;;;;;10.38;4.75;;;35.60;23.30;;;;;;5023383;28;20033;-69
2021/10/22 09:47:09;;;;;;;6.75;4.30;;;34.60;23.90;;;;;;5024366;28;20448;-67
2021/10/22 09:49:38;;;;;;;10.07;4.05;;;32.00;25.20;;;;;;5018159;28;20080;-67
2021/10/22 09:52:26;;;;;;;9.38;3.78;;;30.20;26.70;;;;;;5022398;28;20089;-67
2021/10/22 09:55:12;;;;;;;7.72;2.55;;;28.90;28.50;;;;;;5029382;28;20033;-67
2021/10/22 09:57:45;;;;;;;7.43;2.65;;;29.20;28.20;;;;;;5030737;28;20374;-67
2021/10/22 10:00:19;;;;;;;9.20;2.70;;;31.70;27.20;;;;;;5030136;28;20500;-67
2021/10/22 10:02:45;;;;;;;8.52;3.60;;;33.20;25.90;;;;;;5031526;28;20045;-67
2021/10/22 10:05:12;;;;;;;8.60;3.95;;;34.50;24.40;;;;;;5017947;28;20033;-67
2021/10/22 10:07:41;;;;;;;7.22;3.50;;;35.60;23.60;;;;;;5020073;28;20469;-68
2021/10/22 10:10:09;;;;;;;8.63;3.22;;;36.60;23.70;;;;;;5025195;28;20022;-68
2021/10/22 10:12:36;;;;;;;8.80;3.22;;;37.50;22.30;;;;;;5017257;28;20033;-67
2021/10/22 10:15:04;;;;;;;7.25;2.85;;;38.40;21.70;;;;;;5015255;28;20032;-68
2021/10/22 10:17:34;;;;;;;9.15;2.72;;;39.20;20.80;;;;;;5017314;28;20117;-67
2021/10/22 10:20:02;;;;;;;9.65;2.85;;;39.70;20.00;;;;;;5019666;28;20113;-67
2021/10/22 10:22:30;;;;;;;8.10;2.33;;;40.20;19.80;;;;;;5016740;28;20044;-67
2021/10/22 10:25:03;;;;;;;8.27;2.58;;;40.60;19.60;;;;;;5017387;28;20026;-68
2021/10/22 10:27:52;;;;;;;5.38;2.10;;;41.10;19.30;;;;;;5017283;28;20100;-68
2021/10/22 10:30:44;;;;;;;9.68;3.53;;;41.60;18.80;;;;;;5028425;28;20048;-66
2021/10/22 10:33:30;;;;;;;8.10;2.50;;;42.00;18.80;;;;;;5013571;28;20035;-65
2021/10/22 10:35:56;;;;;;;7.20;2.50;;;42.50;18.40;;;;;;5029714;28;20026;-65
2021/10/22 10:38:42;;;;;;;8.55;2.30;;;42.70;17.90;;;;;;5023402;28;20488;-65
2021/10/22 10:41:36;;;;;;;9.05;2.20;;;43.10;17.60;;;;;;5032992;28;20033;-65
2021/10/22 10:44:24;;;;;;;9.98;2.58;;;43.50;17.20;;;;;;5028034;28;20344;-66
2021/10/22 10:46:50;;;;;;;7.28;2.30;;;43.80;16.90;;;;;;5029536;28;20028;-66
2021/10/22 10:49:46;;;;;;;10.98;3.15;;;44.00;16.90;;;;;;5023719;28;20029;-66
2021/10/22 10:52:49;;;;;;;6.60;2.20;;;44.30;16.60;;;;;;5018370;28;20405;-68
2021/10/22 10:55:31;;;;;;;9.85;2.40;;;44.70;16.30;;;;;;5047209;28;20033;-68
2021/10/22 10:58:01;;;;;;;9.63;2.72;;;45.00;15.80;;;;;;5039143;28;20029;-68
2021/10/22 11:00:35;;;;;;;7.43;2.00;;;45.30;16.00;;;;;;5036480;28;20109;-68
2021/10/22 11:03:04;;;;;;;8.88;2.53;;;45.60;15.40;;;;;;5048229;28;20559;-68
2021/10/22 11:05:45;;;;;;;7.68;2.33;;;45.90;15.50;;;;;;5048765;28;20635;-68
2021/10/22 11:08:26;;;;;;;6.07;2.03;;;46.20;15.00;;;;;;5040953;28;20037;-68
2021/10/22 11:11:15;;;;;;;8.52;2.20;;;46.60;15.00;;;;;;5046898;28;20582;-68
2021/10/22 11:13:53;;;;;;;5.93;1.92;;;46.90;14.90;;;;;;5048186;28;20733;-68
2021/10/22 11:16:21;;;;;;;6.78;1.98;;;47.30;14.70;;;;;;5043961;28;20627;-68
2021/10/22 11:18:54;;;;;;;6.80;2.10;;;47.60;14.30;;;;;;5044062;28;20112;-68
2021/10/22 11:21:21;;;;;;;6.30;1.73;;;47.90;14.30;;;;;;5034946;28;20531;-68
2021/10/22 11:23:49;;;;;;;7.80;1.85;;;48.20;14.10;;;;;;5041211;28;20072;-68
2021/10/22 11:26:19;;;;;;;7.88;1.80;;;47.40;14.20;;;;;;5047889;28;20581;-68
2021/10/22 11:29:15;;;;;;;6.68;1.50;;;47.90;14.00;;;;;;5034488;28;20044;-68
2021/10/22 11:31:54;;;;;;;6.00;1.42;;;47.00;14.10;;;;;;5020250;28;20038;-68
2021/10/22 11:34:25;;;;;;;5.55;1.38;;;47.50;13.70;;;;;;5027688;28;20033;-68
2021/10/22 11:37:07;;;;;;;6.75;1.50;;;45.80;13.20;;;;;;5025765;28;20045;-67
2021/10/22 11:39:39;;;;;;;5.47;1.45;;;42.90;15.20;;;;;;5027096;28;20030;-68
2021/10/22 11:42:28;;;;;;;5.05;1.60;;;44.90;15.40;;;;;;5028234;28;20034;-68
2021/10/22 11:45:15;;;;;;;6.13;1.20;;;42.50;14.40;;;;;;5028306;28;20393;-67
2021/10/22 11:47:43;;;;;;;6.00;1.27;;;39.50;15.90;;;;;;5029855;28;20045;-67
2021/10/22 11:50:28;;;;;;;5.60;1.27;;;36.70;17.50;;;;;;5026429;28;20481;-66
2021/10/22 11:53:13;;;;;;;5.22;1.20;;;35.30;19.40;;;;;;5026811;28;20044;-67
2021/10/22 11:55:40;;;;;;;7.38;1.48;;;39.20;17.70;;;;;;5026286;28;20028;-67
2021/10/22 11:58:08;;;;;;;5.97;1.35;;;41.50;16.20;;;;;;5025250;28;20045;-67
2021/10/22 12:00:35;;;;;;;6.90;1.17;;;43.10;15.60;;;;;;5021153;28;20096;-68
2021/10/22 12:03:01;;;;;;;6.57;1.17;;;44.50;14.30;;;;;;5012287;28;20093;-68
2021/10/22 12:05:27;;;;;;;5.63;1.00;;;46.00;13.90;;;;;;5030353;28;20029;-67
2021/10/22 12:07:58;;;;;;;4.47;1.10;;;46.20;13.40;;;;;;5019560;28;20527;-68
2021/10/22 12:10:27;;;;;;;4.22;1.08;;;47.10;12.40;;;;;;5020710;28;20409;-68
2021/10/22 12:12:55;;;;;;;6.32;1.30;;;47.70;12.50;;;;;;5017491;28;20024;-67
2021/10/22 12:15:29;;;;;;;5.65;1.30;;;45.60;12.70;;;;;;5026727;28;20497;-67
2021/10/22 12:17:59;;;;;;;3.85;1.02;;;44.40;13.70;;;;;;5026207;28;20029;-67
2021/10/22 12:20:25;;;;;;;6.40;1.20;;;40.50;14.10;;;;;;5021724;28;20060;-67
2021/10/22 12:23:02;;;;;;;5.70;1.33;;;38.60;15.60;;;;;;5016898;28;20405;-66
2021/10/22 12:25:30;;;;;;;7.00;1.20;;;36.30;16.80;;;;;;5017636;28;20025;-66
2021/10/22 12:28:01;;;;;;;6.15;1.10;;;38.70;17.50;;;;;;5024561;28;20036;-66
2021/10/22 12:30:31;;;;;;;5.03;1.23;;;36.10;17.40;;;;;;5013951;28;20382;-66
2021/10/22 12:33:05;;;;;;;6.00;1.15;;;34.70;18.90;;;;;;5028131;28;20045;-66
2021/10/22 15:53:13;;;;;;;6.45;1.25;;;19.10;43.60;;;;;;5045441;28;20551;-63
2021/10/22 15:55:39;;;;;;;7.40;1.40;;;18.30;44.50;;;;;;5050565;28;20435;-63
2021/10/22 15:58:08;;;;;;;9.20;1.30;;;18.20;44.80;;;;;;5044579;28;20329;-64
2021/10/22 16:00:35;;;;;;;2.97;0.80;;;18.10;45.20;;;;;;5043773;28;20105;-63
2021/10/22 16:03:02;;;;;;;7.85;1.27;;;18.10;45.50;;;;;;5038669;28;20018;-63
2021/10/22 16:05:28;;;;;;;6.78;1.30;;;18.00;45.90;;;;;;5033357;28;20072;-63
2021/10/22 16:08:00;;;;;;;9.25;1.40;;;17.90;46.20;;;;;;5031825;28;20045;-63
2021/10/22 16:10:37;;;;;;;8.13;1.45;;;17.90;46.20;;;;;;5031350;28;20467;-63
2021/10/22 16:13:05;;;;;;;5.10;1.40;;;17.80;46.30;;;;;;5035975;28;20053;-63
2021/10/22 16:18:02;;;;;;;7.97;1.42;;;17.70;46.80;;;;;;5028048;28;20034;-63
2021/10/22 16:20:29;;;;;;;9.35;3.30;;;17.60;47.10;;;;;;5031387;28;20101;-63
2021/10/22 16:22:55;;;;;;;9.45;3.30;;;17.50;47.30;;;;;;5038920;28;20021;-63
2021/10/22 16:25:21;;;;;;;8.02;2.17;;;17.40;47.70;;;;;;5037449;28;20562;-63
2021/10/22 16:27:46;;;;;;;5.60;1.80;;;17.30;47.90;;;;;;5031361;28;20021;-63